| time (UTC) | temp C | wind direction | speed KPH | gust KPH | rain 1hr cm | rain 24hr cm | rain mn cm | humidity % | barometer mb |
| 20260906231537 | 17 | 311 | 3.2 | 8.0 | 0.00 | 0.25 | 0.18 | 64 | 1015.6 |
| 20260906230032 | 17 | 329 | 8.0 | 12.9 | 0.00 | 0.25 | 0.18 | 65 | 1015.8 |
| 20260906224532 | 17 | 273 | 3.2 | 9.7 | 0.00 | 0.25 | 0.18 | 67 | 1016.0 |
| 20260906223036 | 16 | 313 | 1.6 | 6.4 | 0.00 | 0.25 | 0.18 | 67 | 1016.3 |
| 20260906221531 | 16 | 311 | 0.0 | 4.8 | 0.00 | 0.25 | 0.18 | 67 | 1016.2 |
| 20260906220033 | 17 | 55 | 3.2 | 11.3 | 0.00 | 0.25 | 0.18 | 67 | 1016.2 |
| 20260906214529 | 17 | 58 | 8.0 | 12.9 | 0.00 | 0.25 | 0.18 | 66 | 1016.1 |
| 20260906213029 | 17 | 87 | 6.4 | 12.9 | 0.00 | 0.25 | 0.18 | 66 | 1016.1 |
| 20260906211539 | 17 | 68 | 3.2 | 14.5 | 0.00 | 0.25 | 0.18 | 65 | 1016.0 |
| 20260906210044 | 17 | 322 | 4.8 | 14.5 | 0.00 | 0.25 | 0.18 | 65 | 1016.0 |
| 20260906204527 | 17 | 44 | 9.7 | 16.1 | 0.00 | 0.25 | 0.18 | 65 | 1016.1 |
| 20260906203030 | 17 | 121 | 6.4 | 17.7 | 0.00 | 0.25 | 0.18 | 66 | 1016.1 |
| 20260906201538 | 16 | 73 | 4.8 | 17.7 | 0.00 | 0.25 | 0.18 | 66 | 1016.2 |
| 20260906200025 | 17 | 60 | 6.4 | 16.1 | 0.00 | 0.25 | 0.18 | 65 | 1016.2 |
| 20260906194525 | 17 | 50 | 8.0 | 12.9 | 0.00 | 0.25 | 0.18 | 64 | 1016.3 |
| 20260906193025 | 17 | 32 | 9.7 | 20.9 | 0.00 | 0.25 | 0.18 | 63 | 1016.2 |
| 20260906191524 | 17 | 360 | 12.9 | 24.1 | 0.00 | 0.25 | 0.18 | 61 | 1016.1 |
| 20260906190021 | 18 | 41 | 11.3 | 25.7 | 0.00 | 0.25 | 0.18 | 62 | 1016.1 |
| 20260906184519 | 17 | 74 | 8.0 | 22.5 | 0.00 | 0.25 | 0.18 | 62 | 1016.1 |
| 20260906183013 | 16 | 73 | 14.5 | 27.4 | 0.03 | 0.25 | 0.18 | 66 | 1016.2 |
| 20260906181510 | 16 | 13 | 11.3 | 22.5 | 0.05 | 0.25 | 0.18 | 72 | 1016.5 |
| 20260906180005 | 14 | 53 | 6.4 | 11.3 | 0.05 | 0.25 | 0.18 | 76 | 1017.0 |
| 20260906174505 | 13 | 54 | 4.8 | 12.9 | 0.03 | 0.23 | 0.15 | 79 | 1017.3 |
| 20260906173004 | 12 | 340 | 6.4 | 17.7 | 0.03 | 0.23 | 0.15 | 78 | 1017.6 |
| 20260906171503 | 13 | 270 | 4.8 | 9.7 | 0.00 | 0.20 | 0.13 | 79 | 1018.2 |
| 20260906170003 | 14 | 328 | 1.6 | 6.4 | 0.00 | 0.20 | 0.13 | 76 | 1018.0 |
| 20260906164501 | 14 | 68 | 1.6 | 6.4 | 0.00 | 0.20 | 0.13 | 76 | 1018.0 |
| 20260906163103 | 14 | 96 | 3.2 | 6.4 | 0.10 | 0.20 | 0.13 | 78 | 1018.0 |
| 20260906161600 | 13 | 83 | 3.2 | 4.8 | 0.13 | 0.20 | 0.13 | 79 | 1017.8 |
| 20260906160059 | 13 | 358 | 0.0 | 4.8 | 0.13 | 0.20 | 0.13 | 81 | 1017.9 |
| 20260906154558 | 12 | 288 | 3.2 | 11.3 | 0.13 | 0.20 | 0.13 | 79 | 1018.3 |
| 20260906153114 | 12 | 297 | 6.4 | 20.9 | 0.03 | 0.10 | 0.03 | 78 | 1018.5 |
| 20260906151602 | 12 | 303 | 11.3 | 20.9 | 0.00 | 0.08 | 0.00 | 78 | 1018.5 |
| 20260906150055 | 12 | 290 | 12.9 | 33.8 | 0.00 | 0.08 | 0.00 | 78 | 1018.5 |
| 20260906144554 | 12 | 304 | 14.5 | 35.4 | 0.00 | 0.10 | 0.00 | 78 | 1018.8 |
| 20260906143051 | 14 | 283 | 14.5 | 25.7 | 0.00 | 0.10 | 0.00 | 72 | 1019.1 |
| 20260906141551 | 14 | 71 | 6.4 | 14.5 | 0.00 | 0.10 | 0.00 | 73 | 1018.5 |
| 20260906140047 | 15 | 59 | 6.4 | 16.1 | 0.00 | 0.10 | 0.00 | 72 | 1018.4 |
| 20260906134607 | 15 | 359 | 4.8 | 12.9 | 0.00 | 0.23 | 0.00 | 72 | 1018.3 |
| 20260906133051 | 15 | 304 | 6.4 | 16.1 | 0.00 | 0.23 | 0.00 | 73 | 1018.1 |
| 20260906131541 | 14 | 60 | 6.4 | 14.5 | 0.00 | 0.23 | 0.00 | 74 | 1017.9 |
| 20260906130041 | 14 | 50 | 6.4 | 17.7 | 0.00 | 0.23 | 0.00 | 74 | 1018.2 |
| 20260906124539 | 13 | 345 | 11.3 | 17.7 | 0.00 | 0.23 | 0.00 | 75 | 1018.4 |
| 20260906123052 | 13 | 41 | 4.8 | 14.5 | 0.00 | 0.23 | 0.00 | 75 | 1018.1 |
| 20260906121542 | 13 | 25 | 11.3 | 22.5 | 0.00 | 0.23 | 0.00 | 75 | 1018.1 |
| 20260906120035 | 13 | 235 | 6.4 | 20.9 | 0.00 | 0.23 | 0.00 | 76 | 1018.3 |
| 20260906114534 | 13 | 329 | 14.5 | 20.9 | 0.00 | 0.23 | 0.00 | 76 | 1018.7 |
| 20260906113035 | 13 | 330 | 12.9 | 19.3 | 0.00 | 0.23 | 0.00 | 76 | 1018.5 |
| 20260906111534 | 13 | 347 | 14.5 | 22.5 | 0.00 | 0.23 | 0.00 | 75 | 1018.3 |
| 20260906110132 | 12 | 353 | 11.3 | 19.3 | 0.00 | 0.23 | 0.00 | 75 | 1018.3 |
| 20260906104530 | 12 | 337 | 11.3 | 20.9 | 0.00 | 0.23 | 0.00 | 73 | 1018.4 |
| 20260906103030 | 13 | 360 | 12.9 | 25.7 | 0.00 | 0.23 | 0.00 | 72 | 1018.4 |
| 20260906101531 | 13 | 342 | 11.3 | 24.1 | 0.00 | 0.23 | 0.00 | 72 | 1018.6 |
| 20260906100030 | 13 | 355 | 14.5 | 22.5 | 0.00 | 0.23 | 0.00 | 71 | 1018.7 |
| 20260906094525 | 13 | 4 | 9.7 | 19.3 | 0.00 | 0.23 | 0.00 | 73 | 1018.7 |
| 20260906093035 | 13 | 325 | 14.5 | 27.4 | 0.00 | 0.23 | 0.00 | 72 | 1018.7 |
| 20260906091522 | 13 | 329 | 16.1 | 25.7 | 0.00 | 0.23 | 0.00 | 72 | 1018.9 |
| 20260906090036 | 14 | 340 | 14.5 | 32.2 | 0.00 | 0.23 | 0.00 | 72 | 1019.2 |
| 20260906084520 | 13 | 283 | 17.7 | 29.0 | 0.00 | 0.23 | 0.00 | 76 | 1019.8 |
| 20260906083016 | 13 | 333 | 11.3 | 25.7 | 0.00 | 0.23 | 0.00 | 73 | 1019.4 |
| 20260906081515 | 13 | 338 | 11.3 | 24.1 | 0.00 | 0.23 | 0.00 | 73 | 1019.1 |
| 20260906080010 | 13 | 326 | 12.9 | 22.5 | 0.00 | 0.23 | 0.00 | 72 | 1018.9 |
| 20260906074508 | 13 | 10 | 11.3 | 20.9 | 0.00 | 0.23 | 0.00 | 71 | 1019.1 |
| 20260906073006 | 14 | 321 | 11.3 | 25.7 | 0.00 | 0.23 | 0.00 | 71 | 1019.1 |
| 20260906071504 | 14 | 16 | 14.5 | 22.5 | 0.00 | 0.23 | 0.00 | 71 | 1019.2 |
| 20260906070100 | 14 | 350 | 12.9 | 25.7 | 0.00 | 0.23 | 0.00 | 71 | 1019.5 |
| 20260906064559 | 13 | 326 | 8.0 | 14.5 | 0.00 | 0.23 | 0.23 | 72 | 1019.9 |
| 20260906063058 | 13 | 27 | 12.9 | 22.5 | 0.00 | 0.23 | 0.23 | 71 | 1019.8 |
| 20260906061558 | 13 | 356 | 12.9 | 20.9 | 0.00 | 0.23 | 0.23 | 71 | 1019.9 |
| 20260906060056 | 13 | 348 | 11.3 | 20.9 | 0.00 | 0.23 | 0.23 | 72 | 1020.0 |
| 20260906054557 | 13 | 2 | 11.3 | 25.7 | 0.03 | 0.23 | 0.23 | 71 | 1019.8 |
| 20260906053056 | 12 | 352 | 11.3 | 19.3 | 0.03 | 0.23 | 0.23 | 72 | 1019.7 |
| 20260906051603 | 12 | 360 | 12.9 | 27.4 | 0.03 | 0.23 | 0.23 | 72 | 1019.7 |
| 20260906050106 | 13 | 34 | 19.3 | 37.0 | 0.03 | 0.23 | 0.23 | 72 | 1019.5 |
| 20260906044554 | 13 | 11 | 14.5 | 29.0 | 0.00 | 0.20 | 0.20 | 71 | 1020.3 |
| 20260906043100 | 13 | 330 | 17.7 | 32.2 | 0.05 | 0.20 | 0.20 | 72 | 1019.1 |
| 20260906041602 | 13 | 49 | 14.5 | 25.7 | 0.05 | 0.20 | 0.20 | 73 | 1019.0 |
| 20260906040053 | 13 | 322 | 14.5 | 25.7 | 0.05 | 0.20 | 0.20 | 72 | 1019.0 |
| 20260906034610 | 13 | 348 | 11.3 | 16.1 | 0.05 | 0.20 | 0.20 | 70 | 1019.6 |
| 20260906033051 | 15 | 314 | 12.9 | 22.5 | 0.00 | 0.15 | 0.15 | 62 | 1019.8 |
| 20260906031552 | 15 | 328 | 12.9 | 30.6 | 0.00 | 0.15 | 0.15 | 60 | 1019.5 |
| 20260906030048 | 15 | 347 | 14.5 | 32.2 | 0.00 | 0.15 | 0.15 | 61 | 1018.5 |
| 20260906024547 | 15 | 335 | 16.1 | 30.6 | 0.00 | 0.15 | 0.15 | 60 | 1018.1 |
| 20260906023047 | 15 | 20 | 20.9 | 30.6 | 0.00 | 0.15 | 0.15 | 59 | 1018.0 |
| 20260906021546 | 16 | 353 | 12.9 | 22.5 | 0.00 | 0.15 | 0.15 | 57 | 1018.0 |
| 20260906020048 | 16 | 316 | 3.2 | 12.9 | 0.00 | 0.15 | 0.15 | 54 | 1018.1 |
| 20260906014544 | 17 | 4 | 12.9 | 19.3 | 0.00 | 0.15 | 0.15 | 52 | 1018.1 |
| 20260906013100 | 17 | 356 | 8.0 | 16.1 | 0.00 | 0.15 | 0.15 | 52 | 1018.0 |
| 20260906011547 | 18 | 60 | 9.7 | 20.9 | 0.00 | 0.15 | 0.15 | 49 | 1018.1 |
| 20260906010041 | 18 | 2 | 11.3 | 20.9 | 0.00 | 0.15 | 0.15 | 48 | 1018.0 |
| 20260906004540 | 19 | 14 | 14.5 | 19.3 | 0.00 | 0.15 | 0.15 | 46 | 1018.2 |
| 20260906003040 | 20 | 42 | 8.0 | 20.9 | 0.00 | 0.15 | 0.15 | 45 | 1018.2 |
| 20260906001539 | 20 | 317 | 14.5 | 24.1 | 0.00 | 0.15 | 0.15 | 45 | 1018.1 |
| 20260906000042 | 20 | 307 | 11.3 | 19.3 | 0.00 | 0.15 | 0.15 | 46 | 1018.4 |
| 20260905234538 | 20 | 150 | 6.4 | 12.9 | 0.00 | 0.15 | 0.15 | 46 | 1018.5 |
| 20260905233042 | 20 | 341 | 6.4 | 19.3 | 0.00 | 0.15 | 0.15 | 44 | 1018.4 |